createdAt,value
2023-04-24T00:01:05.452Z,68.72
2023-04-24T00:05:09.889Z,69.68
2023-04-24T00:09:11.471Z,70.23
2023-04-24T00:13:13.186Z,71.64
2023-04-24T00:17:14.656Z,70.92
2023-04-24T00:21:17.455Z,70.27
2023-04-24T00:25:18.908Z,70.44
2023-04-24T00:29:20.354Z,69.99
2023-04-24T00:33:21.771Z,70.54
2023-04-24T00:37:24.555Z,70.37
2023-04-24T00:41:26.541Z,70.45
2023-04-24T00:45:28.327Z,71.30
2023-04-24T00:49:29.875Z,71.75
2023-04-24T00:53:32.692Z,71.67
2023-04-24T00:57:34.274Z,70.81
2023-04-24T01:01:36.623Z,68.00
2023-04-24T01:05:38.148Z,70.62
2023-04-24T01:09:42.159Z,68.24
2023-04-24T01:13:43.999Z,70.29
2023-04-24T01:17:45.691Z,66.74
2023-04-24T01:21:51.481Z,63.48
2023-04-24T01:25:54.424Z,64.20
2023-04-24T01:29:56.190Z,65.37
2023-04-24T01:33:58.071Z,65.15
2023-04-24T01:37:59.815Z,64.96
2023-04-24T01:42:03.113Z,66.08
2023-04-24T01:46:04.736Z,67.64
2023-04-24T01:50:07.592Z,68.26
2023-04-24T01:54:09.046Z,67.99
2023-04-24T01:58:12.152Z,68.95
2023-04-24T02:02:13.641Z,70.42
2023-04-24T02:06:15.262Z,69.10
2023-04-24T02:10:16.789Z,68.67
2023-04-24T02:14:19.521Z,69.87
2023-04-24T02:18:20.938Z,69.67
2023-04-24T02:22:22.346Z,69.70
2023-04-24T02:26:23.851Z,68.21
2023-04-24T02:30:26.702Z,68.65
2023-04-24T02:34:28.262Z,70.77
2023-04-24T02:38:29.953Z,68.43
2023-04-24T02:42:31.409Z,68.90
2023-04-24T02:46:34.252Z,68.77
2023-04-24T02:50:35.766Z,67.84
2023-04-24T02:54:37.517Z,68.24
2023-04-24T02:58:39.173Z,68.62
2023-04-24T03:02:42.265Z,67.87
2023-04-24T03:06:43.859Z,69.75
2023-04-24T03:10:48.049Z,69.29
2023-04-24T03:14:49.732Z,67.55
2023-04-24T03:18:52.844Z,68.20
2023-04-24T03:22:54.876Z,68.44
2023-04-24T03:26:56.452Z,70.82
2023-04-24T03:30:57.848Z,68.85
2023-04-24T03:35:00.646Z,69.47
2023-04-24T03:39:02.073Z,68.62
2023-04-24T03:43:03.570Z,69.23
2023-04-24T03:47:05.181Z,68.35
2023-04-24T03:51:08.044Z,69.19
2023-04-24T03:55:10.287Z,69.39
2023-04-24T03:59:12.076Z,69.06
2023-04-24T04:03:13.836Z,69.63
2023-04-24T04:07:16.833Z,69.35
2023-04-24T04:11:18.204Z,69.59
2023-04-24T04:15:21.908Z,70.69
2023-04-24T04:19:23.540Z,70.14
2023-04-24T04:23:26.416Z,70.55
2023-04-24T04:27:27.935Z,70.23
2023-04-24T04:31:29.665Z,69.26
2023-04-24T04:35:31.361Z,69.40
2023-04-24T04:39:34.237Z,69.16
2023-04-24T04:43:35.767Z,69.04
2023-04-24T04:47:37.237Z,68.81
2023-04-24T04:51:39.183Z,70.74
2023-04-24T04:55:43.091Z,69.09
2023-04-24T04:59:44.761Z,67.86
2023-04-24T05:03:46.763Z,67.66
2023-04-24T05:07:48.287Z,67.08
2023-04-24T05:11:51.202Z,67.95
2023-04-24T05:15:52.824Z,68.37
2023-04-24T05:19:54.253Z,68.14
2023-04-24T05:23:55.870Z,68.19
2023-04-24T05:27:58.856Z,69.16
2023-04-24T05:32:00.762Z,69.44
2023-04-24T05:36:02.194Z,67.98
2023-04-24T05:40:04.468Z,71.12
2023-04-24T05:44:07.507Z,68.43
2023-04-24T05:48:09.130Z,68.62
2023-04-24T05:52:10.664Z,69.00
2023-04-24T05:56:12.486Z,68.47
2023-04-24T06:00:16.067Z,67.67
2023-04-24T06:04:17.564Z,69.90
2023-04-24T06:08:19.339Z,69.66
2023-04-24T06:12:20.762Z,70.29
2023-04-24T06:16:23.547Z,71.18
2023-04-24T06:20:25.573Z,70.29
2023-04-24T06:24:28.205Z,70.68
2023-04-24T06:28:29.709Z,72.50
2023-04-24T06:32:32.467Z,74.57
2023-04-24T06:36:33.920Z,74.24
2023-04-24T06:40:35.323Z,77.63
2023-04-24T06:44:37.066Z,78.12
2023-04-24T06:48:40.006Z,78.86
2023-04-24T06:52:41.666Z,78.52
2023-04-24T06:56:43.075Z,78.72
2023-04-24T07:00:44.513Z,79.64
2023-04-24T07:04:47.338Z,79.76
2023-04-24T07:08:48.876Z,80.98
2023-04-24T07:12:50.325Z,80.17
2023-04-24T07:16:51.756Z,82.34
2023-04-24T07:20:54.546Z,82.46
2023-04-24T07:24:56.012Z,82.46
2023-04-24T07:28:57.587Z,82.72
2023-04-24T07:32:59.143Z,83.15
2023-04-24T07:37:02.737Z,81.50
2023-04-24T07:41:04.241Z,82.41
2023-04-24T07:45:07.014Z,82.23
2023-04-24T07:49:13.772Z,82.71
2023-04-24T07:53:17.178Z,82.77
2023-04-24T07:57:18.624Z,83.22
2023-04-24T08:01:20.169Z,83.87
2023-04-24T08:05:21.707Z,85.78
2023-04-24T08:09:25.905Z,85.01
2023-04-24T08:13:28.891Z,86.08
2023-04-24T08:17:32.383Z,85.12
2023-04-24T08:21:33.754Z,84.01
2023-04-24T08:25:36.741Z,81.63
2023-04-24T08:29:38.459Z,82.59
2023-04-24T08:33:39.899Z,82.66
2023-04-24T08:37:41.332Z,82.89
2023-04-24T08:41:45.487Z,83.23
2023-04-24T08:45:46.930Z,84.59
2023-04-24T08:49:49.972Z,84.43
2023-04-24T08:53:54.595Z,84.73
2023-04-24T08:57:58.375Z,85.31
2023-04-24T09:02:00.938Z,85.18
2023-04-24T09:06:03.593Z,86.55
2023-04-24T09:10:09.916Z,85.62
2023-04-24T09:14:13.632Z,86.35
2023-04-24T09:18:15.098Z,86.62
2023-04-24T09:22:16.565Z,87.10
2023-04-24T09:26:18.006Z,86.58
2023-04-24T09:30:22.951Z,86.21
2023-04-24T09:34:27.124Z,87.24
2023-04-24T09:38:32.323Z,86.34
2023-04-24T09:42:33.930Z,86.88
2023-04-24T09:46:36.898Z,87.21
2023-04-24T09:50:38.715Z,86.46
2023-04-24T09:54:40.520Z,86.01
2023-04-24T09:58:41.924Z,85.48
2023-04-24T10:02:44.768Z,85.76
2023-04-24T10:06:47.934Z,85.40
2023-04-24T10:10:49.420Z,85.22
2023-04-24T10:14:51.298Z,83.68
2023-04-24T10:18:55.007Z,83.82
2023-04-24T10:22:58.432Z,84.04
2023-04-24T10:27:00.754Z,84.59
2023-04-24T10:31:02.741Z,84.48
2023-04-24T10:35:07.504Z,83.13
2023-04-24T10:39:12.258Z,82.69
2023-04-24T10:43:18.391Z,83.06
2023-04-24T10:47:19.926Z,81.36
2023-04-24T10:51:25.000Z,77.04
2023-04-24T10:55:42.154Z,78.24
2023-04-24T10:59:43.601Z,76.76
2023-04-24T11:03:55.006Z,79.68
2023-04-24T11:08:14.638Z,83.33
2023-04-24T11:12:16.371Z,79.53
2023-04-24T11:16:22.340Z,80.81
2023-04-24T11:20:28.366Z,79.88
2023-04-24T11:24:39.795Z,82.27
2023-04-24T11:28:48.198Z,83.54
2023-04-24T11:32:51.845Z,83.83
2023-04-24T11:36:54.976Z,84.30
2023-04-24T11:40:57.774Z,82.51
2023-04-24T11:44:59.440Z,77.19
2023-04-24T11:49:00.972Z,76.97
2023-04-24T11:53:02.465Z,71.01
2023-04-24T11:57:07.881Z,67.41
2023-04-24T12:01:09.300Z,70.19
2023-04-24T12:05:20.669Z,72.35
2023-04-24T12:09:22.268Z,72.55
2023-04-24T12:13:26.464Z,73.01
2023-04-24T12:17:29.621Z,71.78
2023-04-24T12:21:31.318Z,72.02
2023-04-24T12:25:34.128Z,73.16
2023-04-24T12:29:36.945Z,72.83
2023-04-24T12:33:38.588Z,71.55
2023-04-24T12:37:45.752Z,67.36
2023-04-24T12:41:55.643Z,69.02
2023-04-24T12:45:58.594Z,63.35
2023-04-24T12:50:00.207Z,61.77
2023-04-24T12:54:01.656Z,61.61
2023-04-24T12:58:03.108Z,62.19
2023-04-24T13:02:05.872Z,60.07
2023-04-24T13:06:07.491Z,60.08
2023-04-24T13:10:09.875Z,58.20
2023-04-24T13:14:11.364Z,59.09
2023-04-24T13:18:14.118Z,60.20
2023-04-24T13:22:15.567Z,59.48
2023-04-24T13:26:17.215Z,58.95
2023-04-24T13:30:18.852Z,59.34
2023-04-24T13:34:21.627Z,57.76
2023-04-24T13:38:23.054Z,55.14
2023-04-24T13:42:24.558Z,55.77
2023-04-24T13:46:26.330Z,56.41
2023-04-24T13:50:29.246Z,55.09
2023-04-24T13:54:30.681Z,53.03
2023-04-24T13:58:32.177Z,50.83
2023-04-24T14:02:33.804Z,51.37
2023-04-24T14:06:36.715Z,55.24
2023-04-24T14:10:38.228Z,55.87
2023-04-24T14:14:39.696Z,54.33
2023-04-24T14:18:41.200Z,56.23
2023-04-24T14:22:43.971Z,53.88
2023-04-24T14:26:45.414Z,56.44
2023-04-24T14:30:47.063Z,53.69
2023-04-24T14:34:48.518Z,53.90
2023-04-24T14:38:51.516Z,53.54
2023-04-24T14:42:53.020Z,54.74
2023-04-24T14:46:54.750Z,54.61
2023-04-24T14:50:56.160Z,54.64
2023-04-24T14:54:58.859Z,53.19
2023-04-24T14:59:00.685Z,54.48
2023-04-24T15:03:02.533Z,54.93
2023-04-24T15:07:04.699Z,56.17
2023-04-24T15:11:07.681Z,54.33
2023-04-24T15:15:10.080Z,54.70
2023-04-24T15:19:11.648Z,54.65
2023-04-24T15:23:13.098Z,53.40
2023-04-24T15:27:16.092Z,54.37
2023-04-24T15:31:17.499Z,54.20
2023-04-24T15:35:19.119Z,54.83
2023-04-24T15:39:23.249Z,55.03
2023-04-24T15:43:26.153Z,54.27
2023-04-24T15:47:27.683Z,54.88
2023-04-24T15:51:29.088Z,55.28
2023-04-24T15:55:30.848Z,55.69
2023-04-24T15:59:33.645Z,56.13
2023-04-24T16:03:35.207Z,55.72
2023-04-24T16:07:38.907Z,55.64
2023-04-24T16:11:40.467Z,55.05
2023-04-24T16:15:43.285Z,55.74
2023-04-24T16:19:44.776Z,55.00
2023-04-24T16:23:46.354Z,55.12
2023-04-24T16:27:47.895Z,53.58
2023-04-24T16:31:51.691Z,54.04
2023-04-24T16:35:53.321Z,54.39
2023-04-24T16:39:54.865Z,54.97
2023-04-24T16:43:56.371Z,55.31
2023-04-24T16:47:59.219Z,56.46
2023-04-24T16:52:00.716Z,54.66
2023-04-24T16:56:02.335Z,52.91
2023-04-24T17:00:04.608Z,53.49
2023-04-24T17:04:07.524Z,54.08
2023-04-24T17:08:08.988Z,53.15
2023-04-24T17:12:10.409Z,53.54
2023-04-24T17:16:12.061Z,54.54
2023-04-24T17:20:22.269Z,54.57
2023-04-24T17:24:25.013Z,54.37
2023-04-24T17:28:28.064Z,54.45
2023-04-24T17:32:29.654Z,56.41
2023-04-24T17:40:34.216Z,55.49
2023-04-24T17:44:35.647Z,57.86
2023-04-24T17:48:37.086Z,57.86
2023-04-24T17:52:39.810Z,57.84
2023-04-24T17:56:41.348Z,56.62
2023-04-24T18:00:43.054Z,57.76
2023-04-24T18:04:44.664Z,57.51
2023-04-24T18:08:47.726Z,57.30
2023-04-24T18:12:49.422Z,58.28
2023-04-24T18:16:50.817Z,59.24
2023-04-24T18:20:52.303Z,59.72
2023-04-24T18:24:55.249Z,60.75
2023-04-24T18:28:56.890Z,60.31
2023-04-24T18:32:58.583Z,60.83
2023-04-24T18:37:00.010Z,61.31
2023-04-24T18:41:02.774Z,62.35
2023-04-24T18:45:04.901Z,61.99
2023-04-24T18:49:06.564Z,62.97
2023-04-24T18:53:08.588Z,62.75
2023-04-24T18:57:11.362Z,61.78
2023-04-24T19:01:12.924Z,63.77
2023-04-24T19:05:14.389Z,63.01
2023-04-24T19:09:16.232Z,62.93
2023-04-24T19:13:19.073Z,63.54
2023-04-24T19:17:20.449Z,62.67
2023-04-24T19:21:22.046Z,62.89
2023-04-24T19:25:23.450Z,63.01
2023-04-24T19:29:26.353Z,64.42
2023-04-24T19:33:28.302Z,65.75
2023-04-24T19:37:29.808Z,62.74
2023-04-24T19:41:31.217Z,62.22
2023-04-24T19:45:34.068Z,62.11
2023-04-24T19:49:35.455Z,62.62
2023-04-24T19:53:37.093Z,62.20
2023-04-24T19:57:38.519Z,63.16
2023-04-24T20:01:41.727Z,63.46
2023-04-24T20:05:43.511Z,62.96
2023-04-24T20:09:45.035Z,64.79
2023-04-24T20:13:46.455Z,64.97
2023-04-24T20:17:49.191Z,64.01
2023-04-24T20:21:50.863Z,64.26
2023-04-24T20:25:52.386Z,64.02
2023-04-24T20:29:53.760Z,63.70
2023-04-24T20:33:56.837Z,65.68
2023-04-24T20:37:58.323Z,66.27
2023-04-24T20:41:59.974Z,65.82
2023-04-24T20:46:01.450Z,66.75
2023-04-24T20:50:06.635Z,67.50
2023-04-24T20:54:08.003Z,68.55
2023-04-24T20:58:09.861Z,67.76
2023-04-24T21:02:12.435Z,68.49
2023-04-24T21:06:15.706Z,68.27
2023-04-24T21:10:17.313Z,68.92
2023-04-24T21:14:18.886Z,68.48
2023-04-24T21:18:20.339Z,68.67
2023-04-24T21:22:23.059Z,69.99
2023-04-24T21:26:24.506Z,69.79
2023-04-24T21:30:25.976Z,70.18
2023-04-24T21:34:27.421Z,69.86
2023-04-24T21:38:30.248Z,69.79
2023-04-24T21:42:31.861Z,69.54
2023-04-24T21:46:33.350Z,70.92
2023-04-24T21:50:34.832Z,71.41
2023-04-24T21:54:37.628Z,70.60
2023-04-24T21:58:39.262Z,70.84
2023-04-24T22:02:41.026Z,70.66
2023-04-24T22:06:42.459Z,71.15
2023-04-24T22:10:45.263Z,70.98
2023-04-24T22:14:46.683Z,71.33
2023-04-24T22:18:48.258Z,70.14
2023-04-24T22:22:49.691Z,70.51
2023-04-24T22:26:52.446Z,69.25
2023-04-24T22:30:54.068Z,69.75
2023-04-24T22:34:55.479Z,70.32
2023-04-24T22:38:56.839Z,70.06
2023-04-24T22:42:59.781Z,68.94
2023-04-24T22:47:01.228Z,69.81
2023-04-24T22:51:02.985Z,69.75
2023-04-24T22:55:05.467Z,69.15
2023-04-24T22:59:08.217Z,69.64
2023-04-24T23:03:09.710Z,68.99
2023-04-24T23:07:11.230Z,69.34
2023-04-24T23:11:12.911Z,69.85
2023-04-24T23:15:15.708Z,68.87
2023-04-24T23:19:17.109Z,69.57
2023-04-24T23:23:18.980Z,69.57
2023-04-24T23:27:20.661Z,70.22
2023-04-24T23:31:23.534Z,69.84
2023-04-24T23:35:25.562Z,69.73
2023-04-24T23:39:27.214Z,70.44
2023-04-24T23:43:28.646Z,70.21
2023-04-24T23:47:31.505Z,70.80
2023-04-24T23:51:32.928Z,70.66
2023-04-24T23:55:35.608Z,70.49
2023-04-24T23:59:37.031Z,70.82
